Black Creek, Wisconsin
Current Conditions -  °F | °C
As of 4:45 PM on Monday 24 Nov 2014 (Local Time) from KATW Reporting Station
Moderate Snow Moderate Snow  
Wind Chill: 22°   Ceiling: 300
Heat Index: 32°   Visibility: 0.5mi
Dew Point: 32°   Wind: 14mph
Humidity: 100%   Direction: 270°W
Pressure: 29.35"   Gusts: 20mph
Location:  44.48°N, 88.45°W
Report Text: KATW 242245Z 27012G17KT 1/2SM SN VV003 00/00 A2935
Loading
Personal Weather Stations






























Interactive Weather Map New forecast layout! Learn more

10-Day Weather Forecast

Advertisements
Track Severe Weather on mobile